Time;durP1;ratioP1;P1;durP2;ratioP2;P2;SDS_P1;SDS_P2;PMS_P1;PMS_P2;Temp;Humidity;BMP_temperature;BMP_pressure;BME280_temperature;BME280_humidity;BME280_pressure;Samples;Min_cycle;Max_cycle;Signal;HPM_P1;HPM_P2
2022/01/29 00:00:08;;;;;;;326.70;78.87;;;;;;;4.76;54.27;100164.94;343526;28;1372;-71
2022/01/29 00:00:18;;;;;;;329.52;82.45;;;;;;;4.78;54.13;100160.59;340670;29;2059;-71
2022/01/29 00:00:29;;;;;;;331.00;84.90;;;;;;;4.78;54.10;100154.53;338190;29;1452;-71
2022/01/29 00:00:39;;;;;;;330.42;86.35;;;;;;;4.76;54.16;100162.34;338377;29;1674;-71
2022/01/29 00:00:50;;;;;;;326.43;82.10;;;;;;;4.75;53.97;100160.63;338322;29;1472;-71
2022/01/29 00:01:01;;;;;;;325.95;80.47;;;;;;;4.77;54.02;100158.88;339692;29;1731;-71
2022/01/29 00:01:11;;;;;;;326.80;81.07;;;;;;;4.78;54.24;100160.59;339744;29;901;-71
2022/01/29 00:01:21;;;;;;;325.38;79.07;;;;;;;4.81;53.98;100159.69;340867;28;1782;-71
2022/01/29 00:01:32;;;;;;;326.17;80.30;;;;;;;4.81;54.36;100157.09;338398;29;1495;-71
2022/01/29 00:01:43;;;;;;;326.65;82.05;;;;;;;4.80;54.12;100153.66;341073;29;1357;-71
2022/01/29 00:01:53;;;;;;;327.43;83.13;;;;;;;4.79;54.29;100157.13;340426;28;1444;-71
2022/01/29 00:02:03;;;;;;;327.05;82.05;;;;;;;4.78;54.02;100160.59;342351;28;1436;-71
2022/01/29 00:02:16;;;;;;;326.37;78.90;;;;;;;4.79;54.06;100164.03;342547;28;1612;-71
2022/01/29 00:02:26;;;;;;;328.30;80.47;;;;;;;4.79;54.13;100159.72;342292;28;1721;-71
2022/01/29 00:02:36;;;;;;;328.70;80.93;;;;;;;4.80;54.02;100163.16;340274;29;1495;-71
2022/01/29 00:02:47;;;;;;;327.73;80.63;;;;;;;4.79;53.69;100154.53;337232;29;806;-71
2022/01/29 00:02:57;;;;;;;325.98;78.22;;;;;;;4.79;53.71;100159.72;338527;29;1249;-71
2022/01/29 00:03:09;;;;;;;326.37;79.60;;;;;;;4.80;53.79;100156.25;339943;28;1452;-71
2022/01/29 00:03:20;;;;;;;326.73;81.63;;;;;;;4.80;54.04;100164.03;340897;28;1194;-71
2022/01/29 00:03:31;;;;;;;326.25;82.50;;;;;;;4.78;53.97;100155.41;344890;28;1601;-71
2022/01/29 00:03:42;;;;;;;325.17;80.17;;;;;;;4.77;53.79;100158.00;345147;28;971;-71
2022/01/29 00:03:53;;;;;;;326.52;79.88;;;;;;;4.79;53.83;100156.25;340983;28;1487;-71
2022/01/29 00:04:03;;;;;;;327.17;80.43;;;;;;;4.78;54.17;100159.72;340982;28;1432;-71
2022/01/29 00:04:16;;;;;;;329.60;84.30;;;;;;;4.76;54.34;100157.16;338594;29;802;-71
2022/01/29 00:04:27;;;;;;;328.60;83.80;;;;;;;4.77;53.93;100163.19;340964;29;1452;-71
2022/01/29 00:04:37;;;;;;;327.40;83.10;;;;;;;4.75;54.31;100160.63;340720;29;1561;-71
2022/01/29 00:04:47;;;;;;;325.17;81.13;;;;;;;4.76;54.00;100159.75;342170;28;1463;-71
2022/01/29 00:04:58;;;;;;;324.63;81.27;;;;;;;4.78;53.70;100147.63;342400;28;1431;-71
2022/01/29 00:05:09;;;;;;;324.08;79.40;;;;;;;4.78;53.98;100163.19;340928;28;1384;-71
2022/01/29 00:05:19;;;;;;;326.70;81.72;;;;;;;4.78;54.04;100158.00;338815;29;1445;-72
2022/01/29 00:05:30;;;;;;;326.87;81.33;;;;;;;4.78;53.60;100159.72;339794;29;1254;-72
2022/01/29 00:05:40;;;;;;;328.33;83.50;;;;;;;4.78;53.76;100159.72;340927;29;1531;-71
2022/01/29 00:05:51;;;;;;;327.40;81.93;;;;;;;4.75;54.12;100160.63;341538;28;1500;-71
2022/01/29 00:06:01;;;;;;;328.00;83.05;;;;;;;4.73;54.29;100158.94;342436;28;843;-71
2022/01/29 00:06:12;;;;;;;326.75;81.10;;;;;;;4.74;54.16;100158.91;341052;29;960;-71
2022/01/29 00:06:22;;;;;;;326.33;80.67;;;;;;;4.76;53.86;100157.16;342417;28;1463;-71
2022/01/29 00:06:33;;;;;;;324.70;79.82;;;;;;;4.74;53.97;100158.91;339478;29;1523;-71
2022/01/29 00:06:44;;;;;;;324.50;79.17;;;;;;;4.77;53.88;100158.88;336998;29;850;-71
2022/01/29 00:06:54;;;;;;;324.50;79.05;;;;;;;4.77;53.74;100164.03;338044;29;1477;-71
2022/01/29 00:07:04;;;;;;;326.02;80.45;;;;;;;4.80;53.77;100164.03;338474;29;1615;-71
2022/01/29 00:07:15;;;;;;;325.87;80.23;;;;;;;4.79;54.30;100164.91;339796;29;1216;-71
2022/01/29 00:07:25;;;;;;;326.88;80.32;;;;;;;4.75;53.99;100155.47;339676;29;1500;-72
2022/01/29 00:07:41;;;;;;;326.60;79.60;;;;;;;4.76;53.73;100162.34;339767;29;1551;-71
2022/01/29 00:07:51;;;;;;;326.30;80.00;;;;;;;4.75;54.01;100159.78;341007;29;1509;-71
2022/01/29 00:08:03;;;;;;;327.50;81.47;;;;;;;4.75;53.69;100160.63;340964;29;838;-71
2022/01/29 00:08:13;;;;;;;328.17;83.28;;;;;;;4.76;54.02;100162.34;337097;28;1373;-71
2022/01/29 00:08:24;;;;;;;329.90;85.35;;;;;;;4.76;53.94;100159.75;337440;29;1399;-71
2022/01/29 00:08:34;;;;;;;329.30;84.70;;;;;;;4.78;54.06;100159.72;341896;28;1479;-71
2022/01/29 00:08:45;;;;;;;328.50;82.35;;;;;;;4.78;53.86;100154.53;342272;28;798;-71
2022/01/29 00:08:57;;;;;;;326.90;79.50;;;;;;;4.76;53.96;100161.50;341811;28;1520;-71
2022/01/29 00:09:08;;;;;;;327.10;78.80;;;;;;;4.76;53.92;100162.34;339721;29;1567;-72
2022/01/29 00:09:18;;;;;;;326.65;79.18;;;;;;;4.77;54.30;100163.19;340979;29;1477;-72
2022/01/29 00:09:29;;;;;;;326.27;80.40;;;;;;;4.79;53.85;100162.31;342402;28;1391;-71
2022/01/29 00:09:39;;;;;;;326.85;80.72;;;;;;;4.80;53.83;100158.84;341334;28;1475;-71
2022/01/29 00:09:50;;;;;;;328.33;80.67;;;;;;;4.79;53.85;100157.13;340351;28;1508;-71
2022/01/29 00:10:03;;;;;;;328.80;80.47;;;;;;;4.79;53.88;100167.50;342454;28;1239;-71
2022/01/29 00:10:14;;;;;;;328.60;81.00;;;;;;;4.82;53.84;100161.41;342502;28;952;-71
2022/01/29 00:10:24;;;;;;;327.77;81.43;;;;;;;4.82;53.84;100166.59;341041;29;1400;-71
2022/01/29 00:10:35;;;;;;;327.88;80.60;;;;;;;4.78;53.92;100160.59;340268;28;1219;-71
2022/01/29 00:10:48;;;;;;;329.13;82.63;;;;;;;4.78;53.95;100162.31;340870;29;878;-71
2022/01/29 00:11:09;;;;;;;330.23;83.90;;;;;;;4.75;53.84;100159.78;342357;28;1403;-71
2022/01/29 00:11:20;;;;;;;329.63;82.53;;;;;;;4.76;53.96;100162.34;341080;28;1401;-71
2022/01/29 00:11:35;;;;;;;329.42;82.47;;;;;;;4.77;53.74;100164.03;337069;29;1072;-71
2022/01/29 00:11:45;;;;;;;327.27;82.22;;;;;;;4.76;53.81;100164.94;339723;29;949;-71
2022/01/29 00:11:56;;;;;;;326.73;82.60;;;;;;;4.75;53.93;100162.38;339460;29;1532;-71
2022/01/29 00:12:07;;;;;;;325.08;80.43;;;;;;;4.72;54.04;100168.44;339665;29;1473;-71
2022/01/29 00:12:17;;;;;;;326.08;80.63;;;;;;;4.70;54.19;100165.00;339721;29;1355;-71
2022/01/29 00:12:28;;;;;;;325.27;79.67;;;;;;;4.71;53.74;100166.72;341082;29;810;-71
2022/01/29 00:12:39;;;;;;;324.92;80.10;;;;;;;4.71;53.70;100164.13;338844;29;1369;-71
2022/01/29 00:12:49;;;;;;;324.05;78.32;;;;;;;4.73;54.01;100167.56;339729;29;1210;-71
2022/01/29 00:12:59;;;;;;;325.50;80.33;;;;;;;4.72;54.00;100171.03;339724;29;850;-71
2022/01/29 00:13:10;;;;;;;325.38;80.70;;;;;;;4.72;54.13;100165.00;336608;29;1421;-71
2022/01/29 00:13:20;;;;;;;325.90;81.63;;;;;;;4.74;53.98;100158.06;339089;28;1495;-71
2022/01/29 00:13:31;;;;;;;325.92;81.53;;;;;;;4.76;53.87;100172.72;338286;29;858;-71
2022/01/29 00:13:41;;;;;;;326.40;80.67;;;;;;;4.76;53.82;100167.53;338326;29;1662;-71
2022/01/29 00:13:52;;;;;;;326.90;80.32;;;;;;;4.78;53.65;100162.31;338422;29;1317;-71
2022/01/29 00:14:02;;;;;;;328.03;80.87;;;;;;;4.77;53.55;100164.03;338450;29;884;-71
2022/01/29 00:14:12;;;;;;;329.48;82.43;;;;;;;4.78;53.64;100163.19;339934;29;1424;-71
2022/01/29 00:14:23;;;;;;;327.50;81.33;;;;;;;4.78;53.64;100163.19;340328;29;1503;-71
2022/01/29 00:14:33;;;;;;;327.05;81.68;;;;;;;4.77;53.75;100161.44;339748;29;818;-71
2022/01/29 00:14:44;;;;;;;326.43;80.93;;;;;;;4.78;53.68;100160.59;339529;29;1374;-71
2022/01/29 00:14:54;;;;;;;327.50;83.00;;;;;;;4.77;53.53;100161.44;339764;29;1456;-71
2022/01/29 00:15:05;;;;;;;326.43;83.27;;;;;;;4.76;53.82;100164.94;340908;29;1424;-72
2022/01/29 00:15:15;;;;;;;326.77;81.97;;;;;;;4.73;54.00;100170.16;341186;29;801;-72
2022/01/29 00:15:26;;;;;;;326.92;81.18;;;;;;;4.70;53.85;100167.59;339539;29;1535;-72
2022/01/29 00:15:36;;;;;;;327.40;82.50;;;;;;;4.70;53.69;100159.81;340024;28;1416;-72
2022/01/29 00:15:46;;;;;;;328.30;83.90;;;;;;;4.72;53.54;100163.25;340982;29;913;-72
2022/01/29 00:15:57;;;;;;;327.27;82.55;;;;;;;4.72;53.63;100165.84;340960;28;1602;-71
2022/01/29 00:16:07;;;;;;;327.13;79.87;;;;;;;4.71;53.96;100166.72;342638;28;1535;-71
2022/01/29 00:16:18;;;;;;;327.90;80.75;;;;;;;4.71;53.89;100163.28;341178;29;866;-71
2022/01/29 00:16:28;;;;;;;328.53;82.30;;;;;;;4.70;53.77;100161.53;341066;28;1760;-72
2022/01/29 00:16:40;;;;;;;326.67;82.28;;;;;;;4.66;53.99;100160.72;338106;29;1409;-71
2022/01/29 00:16:51;;;;;;;325.00;81.53;;;;;;;4.68;53.93;100166.75;341074;28;1518;-71
2022/01/29 00:17:01;;;;;;;326.38;82.85;;;;;;;4.70;53.95;100167.59;342311;28;1415;-71
2022/01/29 00:17:13;;;;;;;326.93;82.63;;;;;;;4.71;53.79;100161.53;343310;28;1566;-71
2022/01/29 00:17:23;;;;;;;327.23;82.68;;;;;;;4.72;53.72;100165.84;343735;28;1498;-71
2022/01/29 00:17:34;;;;;;;327.93;81.67;;;;;;;4.75;53.71;100171.00;343861;28;916;-71
2022/01/29 00:17:44;;;;;;;327.40;81.80;;;;;;;4.73;54.10;100162.38;338357;29;928;-71
2022/01/29 00:17:54;;;;;;;327.43;81.10;;;;;;;4.73;54.15;100164.97;337808;29;1457;-71
2022/01/29 00:18:06;;;;;;;325.92;80.45;;;;;;;4.70;54.19;100159.81;338048;29;1397;-71
2022/01/29 00:18:17;;;;;;;325.40;80.32;;;;;;;4.70;53.92;100157.22;337252;28;1292;-72
2022/01/29 00:18:27;;;;;;;325.57;80.87;;;;;;;4.68;53.84;100161.56;340372;28;1989;-72
2022/01/29 00:18:37;;;;;;;326.70;82.18;;;;;;;4.70;54.23;100162.41;342939;28;1452;-72
2022/01/29 00:18:48;;;;;;;327.07;82.07;;;;;;;4.71;53.74;100158.94;340811;28;1216;-71
2022/01/29 00:18:58;;;;;;;326.33;81.43;;;;;;;4.67;54.09;100154.66;340917;29;1583;-71
2022/01/29 00:19:09;;;;;;;327.20;80.90;;;;;;;4.67;53.31;100157.25;339610;29;1467;-71
2022/01/29 00:19:19;;;;;;;327.15;80.43;;;;;;;4.67;53.76;100157.25;339906;28;1464;-71
2022/01/29 00:19:29;;;;;;;328.43;80.97;;;;;;;4.67;54.15;100162.44;342293;28;3143;-71
2022/01/29 00:19:41;;;;;;;327.52;80.65;;;;;;;4.69;53.81;100160.69;340881;29;1345;-71
2022/01/29 00:19:52;;;;;;;327.42;80.50;;;;;;;4.65;53.79;100159.00;339543;29;1317;-71
2022/01/29 00:20:03;;;;;;;325.45;80.07;;;;;;;4.65;53.95;100156.41;340958;29;951;-71
2022/01/29 00:20:14;;;;;;;327.02;79.88;;;;;;;4.63;53.86;100158.13;338415;29;786;-71
2022/01/29 00:20:24;;;;;;;327.67;80.00;;;;;;;4.62;54.33;100156.41;341089;29;1467;-71
2022/01/29 00:20:35;;;;;;;328.67;79.93;;;;;;;4.63;54.10;100165.91;342023;28;1590;-71
2022/01/29 00:20:45;;;;;;;326.13;79.90;;;;;;;4.65;53.92;100159.00;340929;29;1102;-71
2022/01/29 00:20:55;;;;;;;325.20;80.20;;;;;;;4.63;53.86;100160.72;341087;29;1392;-71
2022/01/29 00:21:06;;;;;;;323.83;79.25;;;;;;;4.63;53.99;100151.22;339474;28;1558;-71
2022/01/29 00:21:16;;;;;;;323.90;78.17;;;;;;;4.64;54.38;100157.28;339696;29;909;-71
2022/01/29 00:21:27;;;;;;;325.52;79.25;;;;;;;4.66;53.99;100163.31;340742;29;1429;-71
2022/01/29 00:21:37;;;;;;;328.23;81.67;;;;;;;4.65;53.84;100157.25;340728;28;1421;-71
2022/01/29 00:21:47;;;;;;;328.15;82.80;;;;;;;4.65;53.69;100153.81;339923;29;791;-71
2022/01/29 00:22:00;;;;;;;327.47;82.63;;;;;;;4.67;53.97;100152.06;342342;28;1490;-71
2022/01/29 00:22:10;;;;;;;324.77;80.68;;;;;;;4.64;54.19;100158.13;342201;28;1475;-71
2022/01/29 00:22:20;;;;;;;324.47;79.80;;;;;;;4.62;54.48;100153.84;342290;28;1471;-71
2022/01/29 00:22:31;;;;;;;324.58;78.63;;;;;;;4.62;53.93;100159.88;341104;29;873;-71
2022/01/29 00:22:41;;;;;;;325.27;79.47;;;;;;;4.64;54.16;100158.13;340716;28;1541;-71
2022/01/29 00:22:52;;;;;;;325.20;79.47;;;;;;;4.62;54.16;100153.84;338282;29;1573;-71
2022/01/29 00:23:02;;;;;;;325.27;79.53;;;;;;;4.60;53.68;100155.56;340590;29;818;-71
2022/01/29 00:23:12;;;;;;;324.43;78.73;;;;;;;4.59;54.12;100157.31;337245;29;1522;-71
2022/01/29 00:23:23;;;;;;;324.48;79.38;;;;;;;4.58;53.90;100158.19;339759;28;1491;-71
2022/01/29 00:23:33;;;;;;;324.23;79.50;;;;;;;4.60;54.18;100161.63;342288;28;745;-71
2022/01/29 00:23:43;;;;;;;323.27;78.82;;;;;;;4.58;53.94;100153.00;342288;28;825;-71
2022/01/29 00:23:54;;;;;;;322.37;78.43;;;;;;;4.58;54.14;100167.69;342100;28;1366;-71
2022/01/29 00:24:05;;;;;;;323.08;78.53;;;;;;;4.58;53.96;100159.91;342269;28;1510;-71
2022/01/29 00:24:15;;;;;;;324.30;79.00;;;;;;;4.58;53.96;100162.50;342406;28;925;-71
2022/01/29 00:24:25;;;;;;;324.13;79.18;;;;;;;4.56;54.24;100162.50;340952;29;1475;-70
2022/01/29 00:24:36;;;;;;;324.13;78.97;;;;;;;4.56;54.15;100162.50;342080;28;1471;-70
2022/01/29 00:24:47;;;;;;;322.75;77.82;;;;;;;4.56;54.92;100159.91;340486;29;1297;-72
2022/01/29 00:24:58;;;;;;;323.33;77.33;;;;;;;4.56;53.97;100159.06;340881;29;1614;-72
2022/01/29 00:25:09;;;;;;;322.70;76.75;;;;;;;4.55;54.18;100158.19;342979;28;1443;-72
2022/01/29 00:25:19;;;;;;;323.90;78.40;;;;;;;4.56;53.78;100159.06;343473;28;1502;-71
2022/01/29 00:25:30;;;;;;;322.83;77.70;;;;;;;4.54;54.03;100161.66;339159;29;1156;-71
2022/01/29 00:25:40;;;;;;;324.47;79.03;;;;;;;4.56;53.94;100161.66;339464;28;1475;-71
2022/01/29 00:25:51;;;;;;;323.63;76.95;;;;;;;4.55;53.87;100155.59;340855;28;1475;-71
2022/01/29 00:26:01;;;;;;;324.07;77.10;;;;;;;4.57;54.26;100155.59;339657;29;790;-71
2022/01/29 00:26:12;;;;;;;323.23;76.53;;;;;;;4.53;54.15;100159.94;338529;29;1523;-71
2022/01/29 00:26:25;;;;;;;324.53;77.93;;;;;;;4.55;53.96;100157.34;342117;28;1428;-71
2022/01/29 00:26:35;;;;;;;325.45;78.03;;;;;;;4.58;54.12;100165.09;342414;28;1526;-71
2022/01/29 00:26:46;;;;;;;325.57;77.33;;;;;;;4.60;54.00;100161.63;343719;28;817;-71
2022/01/29 00:26:56;;;;;;;324.60;76.82;;;;;;;4.60;53.72;100156.44;342266;28;1448;-71
2022/01/29 00:27:10;;;;;;;323.20;77.17;;;;;;;4.57;54.19;100155.59;341287;28;1421;-71
2022/01/29 00:27:22;;;;;;;324.67;78.38;;;;;;;4.53;54.24;100149.56;343292;28;1478;-71
2022/01/29 00:27:35;;;;;;;325.38;79.50;;;;;;;4.56;54.00;100154.72;340914;28;892;-71
2022/01/29 00:27:45;;;;;;;323.85;78.65;;;;;;;4.57;53.84;100150.41;339684;29;972;-71
2022/01/29 00:27:57;;;;;;;323.23;77.93;;;;;;;4.57;54.31;100153.88;340541;28;1492;-71
2022/01/29 00:28:07;;;;;;;323.85;78.72;;;;;;;4.58;54.06;100153.00;337132;29;1408;-72
2022/01/29 00:28:18;;;;;;;323.95;79.40;;;;;;;4.59;54.01;100154.72;336109;28;1321;-73
2022/01/29 00:28:29;;;;;;;323.67;78.10;;;;;;;4.59;54.00;100149.53;340314;28;1361;-72
2022/01/29 00:28:39;;;;;;;323.65;78.90;;;;;;;4.59;54.23;100154.72;342247;28;1472;-72
2022/01/29 00:28:52;;;;;;;324.17;79.67;;;;;;;4.58;54.10;100153.00;339473;29;1358;-72
2022/01/29 00:29:10;;;;;;;325.23;80.95;;;;;;;4.63;53.90;100150.38;339880;29;846;-72
2022/01/29 00:29:22;;;;;;;324.73;78.63;;;;;;;4.64;54.02;100163.31;338527;29;1283;-72
2022/01/29 00:29:34;;;;;;;323.40;78.13;;;;;;;4.64;53.89;100154.69;340791;29;873;-72
2022/01/29 00:29:45;;;;;;;323.58;78.15;;;;;;;4.62;54.10;100159.00;341005;29;988;-72
2022/01/29 00:29:56;;;;;;;324.00;77.63;;;;;;;4.62;53.91;100151.25;340878;29;1539;-72
2022/01/29 00:30:14;;;;;;;323.48;77.15;;;;;;;4.59;53.87;100153.84;338069;29;1448;-72
2022/01/29 00:30:31;;;;;;;322.98;77.15;;;;;;;4.55;53.90;100150.44;338068;29;1471;-72
2022/01/29 00:30:43;;;;;;;324.30;78.15;;;;;;;4.55;53.97;100152.16;339104;29;1373;-72
2022/01/29 00:30:53;;;;;;;324.95;77.95;;;;;;;4.55;53.64;100162.53;340828;28;1420;-72
2022/01/29 00:31:04;;;;;;;324.30;77.68;;;;;;;4.56;53.93;100154.72;342055;28;971;-72
2022/01/29 00:31:14;;;;;;;325.02;78.88;;;;;;;4.57;53.98;100164.22;342199;28;1642;-72
2022/01/29 00:31:24;;;;;;;325.07;79.13;;;;;;;4.58;54.05;100160.78;342197;28;1538;-72
2022/01/29 00:31:35;;;;;;;324.37;77.80;;;;;;;4.57;53.75;100158.19;342154;28;1457;-72
2022/01/29 00:31:45;;;;;;;324.13;76.83;;;;;;;4.55;54.21;100157.34;340983;29;829;-72
2022/01/29 00:31:56;;;;;;;323.60;77.88;;;;;;;4.54;54.29;100155.63;340942;28;1400;-72
2022/01/29 00:32:07;;;;;;;324.20;79.00;;;;;;;4.53;54.28;100159.94;342007;28;1511;-72
2022/01/29 00:32:17;;;;;;;325.13;79.47;;;;;;;4.56;54.26;100159.06;344939;28;1431;-72
2022/01/29 00:32:28;;;;;;;326.30;79.75;;;;;;;4.55;54.22;100155.59;342676;28;1494;-72
2022/01/29 00:32:38;;;;;;;326.23;80.07;;;;;;;4.54;54.29;100156.47;338819;29;1339;-72
2022/01/29 00:32:48;;;;;;;325.15;78.30;;;;;;;4.54;54.16;100155.63;338492;29;838;-72
2022/01/29 00:32:59;;;;;;;324.53;78.90;;;;;;;4.57;54.13;100159.03;339528;29;1357;-72
2022/01/29 00:33:10;;;;;;;325.50;80.37;;;;;;;4.60;54.13;100155.56;336210;29;1719;-71
2022/01/29 00:33:20;;;;;;;325.83;80.50;;;;;;;4.58;54.53;100152.13;337415;28;1413;-72
2022/01/29 00:33:30;;;;;;;327.15;81.60;;;;;;;4.54;53.86;100156.47;340845;29;986;-72
2022/01/29 00:33:41;;;;;;;328.50;79.97;;;;;;;4.56;54.11;100161.66;340697;28;1421;-72
2022/01/29 00:33:51;;;;;;;328.80;80.35;;;;;;;4.52;54.33;100154.78;339585;29;1227;-72
2022/01/29 00:34:02;;;;;;;328.07;78.07;;;;;;;4.52;54.20;100162.53;341042;28;1251;-72
2022/01/29 00:34:12;;;;;;;326.20;78.82;;;;;;;4.53;53.98;100159.09;342191;28;1507;-72
2022/01/29 00:34:22;;;;;;;328.20;80.40;;;;;;;4.55;54.34;100157.34;338265;29;1473;-72
2022/01/29 00:34:33;;;;;;;328.40;81.20;;;;;;;4.56;54.56;100159.06;338141;29;875;-72
2022/01/29 00:34:43;;;;;;;328.60;81.90;;;;;;;4.56;54.37;100159.06;339323;29;1555;-72
2022/01/29 00:34:54;;;;;;;326.38;79.90;;;;;;;4.56;54.09;100162.50;341013;29;1373;-72
2022/01/29 00:35:05;;;;;;;325.50;79.10;;;;;;;4.57;54.17;100155.59;341051;29;862;-72
2022/01/29 00:35:15;;;;;;;325.02;78.25;;;;;;;4.58;54.21;100162.50;342343;28;990;-72
2022/01/29 00:35:25;;;;;;;325.92;78.82;;;;;;;4.57;54.18;100161.63;342862;28;1607;-72
2022/01/29 00:35:36;;;;;;;326.17;79.53;;;;;;;4.59;54.20;100164.22;342088;28;1400;-72
2022/01/29 00:35:46;;;;;;;327.58;81.53;;;;;;;4.59;54.15;100161.63;342156;28;873;-72
2022/01/29 00:35:57;;;;;;;327.47;81.50;;;;;;;4.58;54.18;100158.19;342312;28;1625;-72
2022/01/29 00:36:07;;;;;;;327.63;80.03;;;;;;;4.59;54.30;100159.03;340034;28;1456;-72
2022/01/29 00:36:17;;;;;;;326.50;77.33;;;;;;;4.61;54.39;100157.28;339533;29;1243;-72
2022/01/29 00:36:28;;;;;;;325.93;76.97;;;;;;;4.58;54.14;100157.31;340871;29;1487;-72
2022/01/29 00:36:38;;;;;;;324.60;77.07;;;;;;;4.56;54.20;100159.06;339308;29;1393;-72
2022/01/29 00:36:49;;;;;;;325.50;78.23;;;;;;;4.54;54.39;100159.06;339475;29;791;-72
2022/01/29 00:36:59;;;;;;;324.92;77.10;;;;;;;4.56;54.24;100159.06;339579;28;1436;-72
2022/01/29 00:37:09;;;;;;;325.87;78.60;;;;;;;4.56;54.37;100159.91;339496;28;1487;-72
2022/01/29 00:37:20;;;;;;;327.13;80.65;;;;;;;4.55;54.18;100159.94;340922;29;1458;-72
2022/01/29 00:37:30;;;;;;;328.70;82.80;;;;;;;4.56;54.20;100159.91;340984;29;862;-72
2022/01/29 00:37:41;;;;;;;329.17;83.35;;;;;;;4.56;54.34;100156.47;340770;28;1301;-72
2022/01/29 00:37:51;;;;;;;328.83;83.20;;;;;;;4.59;54.47;100159.03;343463;28;1462;-72
2022/01/29 00:38:01;;;;;;;327.05;82.05;;;;;;;4.56;54.54;100153.88;343407;28;1215;-72
2022/01/29 00:38:12;;;;;;;326.70;81.87;;;;;;;4.53;54.29;100159.09;337707;28;1427;-72
2022/01/29 00:38:22;;;;;;;326.83;82.45;;;;;;;4.53;54.50;100164.25;337365;28;1403;-72
2022/01/29 00:38:33;;;;;;;327.10;81.80;;;;;;;4.49;54.31;100159.97;341950;28;1995;-72
2022/01/29 00:38:44;;;;;;;326.55;81.45;;;;;;;4.48;54.37;100161.69;342002;28;1448;-72
2022/01/29 00:38:54;;;;;;;324.67;78.78;;;;;;;4.49;54.57;100157.38;341957;28;1479;-72
2022/01/29 00:39:04;;;;;;;324.37;78.70;;;;;;;4.48;54.46;100159.13;342336;28;821;-72
2022/01/29 00:39:15;;;;;;;325.33;79.03;;;;;;;4.49;54.76;100157.38;339849;29;916;-72
2022/01/29 00:39:25;;;;;;;326.00;80.33;;;;;;;4.54;54.11;100163.41;339538;29;1503;-72
2022/01/29 00:39:36;;;;;;;326.77;79.90;;;;;;;4.52;54.96;100158.22;339368;29;1483;-72
2022/01/29 00:39:46;;;;;;;325.17;77.50;;;;;;;4.53;54.30;100169.44;340768;28;1227;-72
2022/01/29 00:39:56;;;;;;;325.73;77.70;;;;;;;4.50;54.50;100159.97;342804;28;1439;-72
2022/01/29 00:40:07;;;;;;;325.37;78.57;;;;;;;4.55;54.45;100159.94;342121;28;1406;-72
2022/01/29 00:40:18;;;;;;;327.02;80.68;;;;;;;4.55;54.43;100165.13;341043;29;857;-72
2022/01/29 00:40:28;;;;;;;326.23;79.73;;;;;;;4.53;54.34;100159.94;339452;28;1519;-72
2022/01/29 00:40:38;;;;;;;330.02;79.18;;;;;;;4.54;54.36;100158.22;340648;29;1432;-72
2022/01/29 00:40:49;;;;;;;329.67;78.10;;;;;;;4.51;54.29;100163.41;340876;29;1045;-72
2022/01/29 00:40:59;;;;;;;331.77;77.93;;;;;;;4.50;54.31;100159.97;340767;28;1285;-72
2022/01/29 00:41:10;;;;;;;327.73;76.77;;;;;;;4.52;54.23;100165.13;340882;29;1507;-72
2022/01/29 00:41:20;;;;;;;327.65;75.63;;;;;;;4.51;54.49;100161.69;340996;29;1468;-72
2022/01/29 00:41:30;;;;;;;326.53;76.77;;;;;;;4.49;54.43;100159.97;340857;29;1161;-72
2022/01/29 00:41:41;;;;;;;328.00;77.93;;;;;;;4.49;54.57;100157.38;342125;28;1503;-72
2022/01/29 00:41:51;;;;;;;328.07;78.90;;;;;;;4.48;54.47;100160.84;339346;29;1488;-72
2022/01/29 00:42:03;;;;;;;327.75;77.20;;;;;;;4.48;54.54;100161.69;340824;29;925;-72
2022/01/29 00:42:13;;;;;;;326.63;77.05;;;;;;;4.45;55.01;100153.94;339331;29;1553;-72
2022/01/29 00:42:24;;;;;;;326.83;76.65;;;;;;;4.44;54.93;100159.16;342121;28;1546;-72
2022/01/29 00:42:34;;;;;;;326.60;77.60;;;;;;;4.44;54.46;100170.38;341136;29;794;-72
2022/01/29 00:42:44;;;;;;;325.75;77.15;;;;;;;4.43;54.59;100160.88;340623;28;1377;-72
2022/01/29 00:42:55;;;;;;;325.43;77.53;;;;;;;4.46;54.39;100163.44;340623;28;1467;-71
2022/01/29 00:43:05;;;;;;;326.27;77.57;;;;;;;4.48;54.63;100168.63;337881;29;1508;-71
2022/01/29 00:43:17;;;;;;;327.60;79.80;;;;;;;4.49;54.40;100165.16;335111;29;874;-72
2022/01/29 00:43:27;;;;;;;327.67;80.70;;;;;;;4.49;54.54;100167.75;339530;28;1710;-72
2022/01/29 00:43:38;;;;;;;327.15;80.40;;;;;;;4.48;54.78;100168.63;340653;29;1519;-72
2022/01/29 00:43:48;;;;;;;326.23;78.00;;;;;;;4.47;54.72;100165.16;342695;28;1599;-72
2022/01/29 00:43:59;;;;;;;326.57;78.57;;;;;;;4.46;54.73;100162.59;340910;28;1456;-72
2022/01/29 00:44:09;;;;;;;326.70;77.83;;;;;;;4.45;54.80;100176.41;340726;28;1562;-71
2022/01/29 00:44:20;;;;;;;326.67;78.57;;;;;;;4.45;54.58;100166.03;342243;28;1266;-71
2022/01/29 00:44:30;;;;;;;325.95;78.13;;;;;;;4.46;54.64;100167.78;342239;28;1203;-71
2022/01/29 00:44:40;;;;;;;325.48;77.85;;;;;;;4.47;54.86;100174.66;343419;28;1448;-71
2022/01/29 00:44:51;;;;;;;324.80;77.20;;;;;;;4.46;54.34;100163.44;341967;28;1468;-71
2022/01/29 00:45:01;;;;;;;325.23;76.45;;;;;;;4.45;54.79;100164.31;340782;29;1419;-71
2022/01/29 00:45:12;;;;;;;326.40;76.43;;;;;;;4.45;54.96;100171.22;341644;28;1566;-71
2022/01/29 00:45:22;;;;;;;328.83;78.13;;;;;;;4.45;54.97;100171.22;342406;28;1539;-71
2022/01/29 00:45:33;;;;;;;329.87;80.27;;;;;;;4.46;54.64;100166.03;339727;29;1270;-71
2022/01/29 00:45:43;;;;;;;329.95;80.47;;;;;;;4.46;54.86;100163.44;340424;29;1448;-71
2022/01/29 00:45:54;;;;;;;329.73;80.10;;;;;;;4.45;54.80;100166.03;338620;29;1465;-71
2022/01/29 00:46:04;;;;;;;331.33;79.10;;;;;;;4.46;54.39;100172.94;343413;28;820;-71
2022/01/29 00:46:14;;;;;;;331.40;77.30;;;;;;;4.47;54.61;100165.16;342092;28;1487;-71
2022/01/29 00:46:25;;;;;;;330.70;76.45;;;;;;;4.48;54.38;100171.22;342132;28;1699;-70
2022/01/29 00:46:40;;;;;;;329.27;76.07;;;;;;;4.46;54.74;100162.59;342200;28;1143;-72
2022/01/29 00:46:50;;;;;;;330.33;74.88;;;;;;;4.46;54.52;100163.44;342197;28;901;-72
2022/01/29 00:47:01;;;;;;;330.70;76.13;;;;;;;4.47;54.63;100165.16;339573;29;907;-72
2022/01/29 00:47:15;;;;;;;328.43;76.53;;;;;;;4.46;54.86;100170.34;340698;28;1308;-72
2022/01/29 00:47:25;;;;;;;326.65;77.95;;;;;;;4.48;54.74;100168.63;342702;28;1578;-72
2022/01/29 00:47:35;;;;;;;327.27;77.20;;;;;;;4.48;54.51;100171.22;342153;28;1430;-72
2022/01/29 00:47:46;;;;;;;327.27;76.97;;;;;;;4.49;54.96;100167.75;340835;28;1531;-72
2022/01/29 00:47:56;;;;;;;327.42;77.75;;;;;;;4.50;54.65;100164.28;340836;29;1416;-72
2022/01/29 00:48:07;;;;;;;328.87;78.67;;;;;;;4.48;54.55;100160.84;338848;29;2012;-72
2022/01/29 00:48:17;;;;;;;332.35;80.97;;;;;;;4.48;54.73;100161.69;334274;29;1438;-72
2022/01/29 00:48:27;;;;;;;336.33;82.37;;;;;;;4.47;54.62;100169.50;337272;29;1449;-71
2022/01/29 00:48:38;;;;;;;338.70;84.43;;;;;;;4.48;54.75;100161.69;342078;28;1421;-71
2022/01/29 00:48:48;;;;;;;338.30;83.10;;;;;;;4.48;54.90;100166.88;342138;28;1405;-71
2022/01/29 00:48:58;;;;;;;336.33;82.20;;;;;;;4.49;54.79;100165.16;343809;28;1475;-71
2022/01/29 00:49:09;;;;;;;334.10;80.82;;;;;;;4.50;54.60;100164.28;343264;28;1515;-71
2022/01/29 00:49:20;;;;;;;335.00;82.10;;;;;;;4.50;54.50;100166.88;339553;29;992;-71
2022/01/29 00:49:30;;;;;;;335.10;81.33;;;;;;;4.48;54.68;100166.88;339597;29;1255;-71
2022/01/29 00:49:41;;;;;;;335.73;80.93;;;;;;;4.45;54.87;100168.63;340755;28;1547;-72
2022/01/29 00:49:52;;;;;;;334.50;80.72;;;;;;;4.42;54.74;100174.69;340980;29;617;-72
2022/01/29 00:50:02;;;;;;;334.37;81.67;;;;;;;4.38;54.86;100167.81;340994;29;791;-72
2022/01/29 00:50:12;;;;;;;333.67;80.18;;;;;;;4.37;55.12;100170.41;341461;28;1416;-72
2022/01/29 00:50:23;;;;;;;334.07;79.37;;;;;;;4.38;54.79;100173.00;340966;28;1388;-72